createdAt,value
2017-04-12T00:00:35.953Z,-4.63
2017-04-12T00:01:35.933Z,-4.74
2017-04-12T00:02:35.913Z,-4.66
2017-04-12T00:03:35.893Z,-4.59
2017-04-12T00:04:35.873Z,-4.55
2017-04-12T00:05:35.852Z,-4.62
2017-04-12T00:06:35.832Z,-4.44
2017-04-12T00:07:35.810Z,-4.3
2017-04-12T00:08:35.788Z,-4.45
2017-04-12T00:09:35.772Z,-4.33
2017-04-12T00:10:35.753Z,-4.37
2017-04-12T00:11:35.730Z,-4.38
2017-04-12T00:12:35.710Z,-4.41
2017-04-12T00:13:35.694Z,-4.41
2017-04-12T00:14:35.673Z,-4.48
2017-04-12T00:15:35.654Z,-4.4
2017-04-12T00:16:35.633Z,-4.4
2017-04-12T00:17:35.608Z,-4.36
2017-04-12T00:18:35.590Z,-4.28
2017-04-12T00:19:35.570Z,-4.27
2017-04-12T00:20:35.549Z,-4.2
2017-04-12T00:21:35.530Z,-4.26
2017-04-12T00:22:35.512Z,-4.22
2017-04-12T00:23:35.490Z,-4.31
2017-04-12T00:24:35.470Z,-4.13
2017-04-12T00:25:35.450Z,-4.2
2017-04-12T00:26:35.431Z,-4.23
2017-04-12T00:27:35.411Z,-4.34
2017-04-12T00:28:35.090Z,-4.3
2017-04-12T00:29:35.372Z,-4.3
2017-04-12T00:30:35.351Z,-4.22
2017-04-12T00:31:35.331Z,-4.23
2017-04-12T00:32:35.315Z,-4.19
2017-04-12T00:33:35.300Z,-4.13
2017-04-12T00:34:35.279Z,-4.16
2017-04-12T00:35:35.249Z,-4.12
2017-04-12T00:36:35.232Z,-4.15
2017-04-12T00:37:35.215Z,-4.1
2017-04-12T00:38:35.201Z,-4.12
2017-04-12T00:39:35.166Z,-4.02
2017-04-12T00:40:35.152Z,-4.01
2017-04-12T00:41:35.130Z,-3.94
2017-04-12T00:42:35.114Z,-3.95
2017-04-12T00:43:35.095Z,-3.94
2017-04-12T00:44:35.073Z,-3.95
2017-04-12T00:45:35.055Z,-3.95
2017-04-12T00:46:35.030Z,-3.97
2017-04-12T00:47:35.012Z,-3.95
2017-04-12T00:48:34.996Z,-3.97
2017-04-12T00:49:34.977Z,-3.92
2017-04-12T00:50:34.956Z,-3.92
2017-04-12T00:51:34.936Z,-3.89
2017-04-12T00:52:34.913Z,-3.84
2017-04-12T00:53:34.894Z,-3.69
2017-04-12T00:54:34.880Z,-3.77
2017-04-12T00:55:34.854Z,-3.77
2017-04-12T00:56:34.833Z,-3.77
2017-04-12T00:57:34.814Z,-3.74
2017-04-12T00:58:34.800Z,-3.77
2017-04-12T00:59:34.776Z,-3.7
2017-04-12T01:00:34.754Z,-3.76
2017-04-12T01:01:34.736Z,-3.52
2017-04-12T01:02:34.720Z,-3.54
2017-04-12T01:03:34.696Z,-3.37
2017-04-12T01:04:34.679Z,-3.54
2017-04-12T01:05:34.655Z,-3.49
2017-04-12T01:06:34.642Z,-3.49
2017-04-12T01:07:34.621Z,-3.55
2017-04-12T01:08:34.606Z,-3.55
2017-04-12T01:09:34.582Z,-3.49
2017-04-12T01:10:34.259Z,-3.51
2017-04-12T01:11:34.539Z,-3.55
2017-04-12T01:12:34.523Z,-3.46
2017-04-12T01:13:34.504Z,-3.46
2017-04-12T01:14:34.483Z,-3.37
2017-04-12T01:15:34.463Z,-3.44
2017-04-12T01:16:34.441Z,-3.43
2017-04-12T01:17:34.421Z,-3.34
2017-04-12T01:18:34.403Z,-3.31
2017-04-12T01:19:34.387Z,-3.31
2017-04-12T01:20:34.364Z,-3.31
2017-04-12T01:21:34.345Z,-3.3
2017-04-12T01:22:34.326Z,-3.26
2017-04-12T01:23:34.313Z,-3.31
2017-04-12T01:24:34.331Z,-3.33
2017-04-12T01:25:34.267Z,-3.34
2017-04-12T01:26:34.247Z,-3.19
2017-04-12T01:27:34.224Z,-3.18
2017-04-12T01:28:34.211Z,-3.22
2017-04-12T01:29:34.183Z,-3.13
2017-04-12T01:30:34.168Z,-3.21
2017-04-12T01:31:34.146Z,-3.21
2017-04-12T01:32:34.127Z,-3.3
2017-04-12T01:33:34.112Z,-3.16
2017-04-12T01:34:34.083Z,-3.12
2017-04-12T01:35:34.069Z,-3.13
2017-04-12T01:36:34.049Z,-3.07
2017-04-12T01:37:34.030Z,-3.1
2017-04-12T01:38:34.007Z,-3.01
2017-04-12T01:39:33.690Z,-2.97
2017-04-12T01:40:33.973Z,-2.89
2017-04-12T01:41:33.953Z,-2.86
2017-04-12T01:42:33.626Z,-2.98
2017-04-12T01:43:33.909Z,-2.93
2017-04-12T01:44:33.591Z,-2.97
2017-04-12T01:45:33.872Z,-3.02
2017-04-12T01:46:33.850Z,-2.97
2017-04-12T01:47:33.834Z,-3
2017-04-12T01:48:33.813Z,-2.97
2017-04-12T01:49:33.800Z,-2.9
2017-04-12T01:50:33.786Z,-2.94
2017-04-12T01:51:33.456Z,-2.9
2017-04-12T01:52:33.743Z,-2.93
2017-04-12T01:53:33.719Z,-2.87
2017-04-12T01:54:33.699Z,-3.02
2017-04-12T01:55:33.682Z,-3
2017-04-12T01:56:33.664Z,-2.83
2017-04-12T01:57:33.638Z,-2.8
2017-04-12T01:58:33.621Z,-2.79
2017-04-12T01:59:33.602Z,-2.79
2017-04-12T02:00:33.592Z,-2.79
2017-04-12T02:01:33.565Z,-2.87
2017-04-12T02:02:33.541Z,-2.95
2017-04-12T02:03:33.741Z,-2.84
2017-04-12T02:04:33.514Z,-2.87
2017-04-12T02:05:33.488Z,-2.93
2017-04-12T02:06:33.467Z,-2.89
2017-04-12T02:07:33.446Z,-2.84
2017-04-12T02:08:33.422Z,-2.82
2017-04-12T02:09:33.413Z,-2.76
2017-04-12T02:10:33.387Z,-2.79
2017-04-12T02:11:33.370Z,-2.76
2017-04-12T02:12:33.548Z,-2.72
2017-04-12T02:13:33.329Z,-2.77
2017-04-12T02:14:33.313Z,-2.76
2017-04-12T02:15:33.288Z,-2.82
2017-04-12T02:16:33.275Z,-2.77
2017-04-12T02:17:33.259Z,-2.77
2017-04-12T02:18:33.233Z,-2.84
2017-04-12T02:19:33.216Z,-2.86
2017-04-12T02:20:33.194Z,-2.76
2017-04-12T02:21:33.180Z,-2.84
2017-04-12T02:22:33.155Z,-2.74
2017-04-12T02:23:33.140Z,-2.8
2017-04-12T02:24:33.119Z,-2.87
2017-04-12T02:25:33.099Z,-2.84
2017-04-12T02:26:33.122Z,-2.72
2017-04-12T02:27:33.058Z,-2.77
2017-04-12T02:28:33.041Z,-2.77
2017-04-12T02:29:33.019Z,-2.74
2017-04-12T02:30:33.001Z,-2.77
2017-04-12T02:31:32.986Z,-2.69
2017-04-12T02:32:32.964Z,-2.72
2017-04-12T02:33:32.943Z,-2.66
2017-04-12T02:34:32.930Z,-2.71
2017-04-12T02:35:32.908Z,-2.69
2017-04-12T02:36:32.887Z,-2.69
2017-04-12T02:37:33.085Z,-2.72
2017-04-12T02:38:32.850Z,-2.66
2017-04-12T02:39:32.832Z,-2.61
2017-04-12T02:40:32.805Z,-2.69
2017-04-12T02:41:32.993Z,-2.69
2017-04-12T02:42:32.774Z,-2.71
2017-04-12T02:43:32.755Z,-2.71
2017-04-12T02:44:32.731Z,-2.72
2017-04-12T02:45:32.713Z,-2.71
2017-04-12T02:46:32.892Z,-2.68
2017-04-12T02:47:32.675Z,-2.68
2017-04-12T02:48:32.655Z,-2.72
2017-04-12T02:49:32.634Z,-2.72
2017-04-12T02:50:32.617Z,-2.71
2017-04-12T02:51:32.600Z,-2.77
2017-04-12T02:52:32.579Z,-2.74
2017-04-12T02:53:32.253Z,-2.76
2017-04-12T02:54:32.540Z,-2.65
2017-04-12T02:55:32.518Z,-2.87
2017-04-12T02:56:32.506Z,-2.77
2017-04-12T02:57:32.174Z,-2.71
2017-04-12T02:58:32.457Z,-2.74
2017-04-12T02:59:32.439Z,-2.69
2017-04-12T03:00:32.419Z,-2.72
2017-04-12T03:01:32.402Z,-2.79
2017-04-12T03:02:32.384Z,-2.74
2017-04-12T03:03:32.365Z,-2.72
2017-04-12T03:04:32.345Z,-2.69
2017-04-12T03:05:32.327Z,-2.68
2017-04-12T03:06:32.310Z,-2.65
2017-04-12T03:07:31.985Z,-2.62
2017-04-12T03:08:32.273Z,-2.48
2017-04-12T03:09:32.251Z,-2.5
2017-04-12T03:10:31.928Z,-2.44
2017-04-12T03:11:32.430Z,-2.47
2017-04-12T03:12:32.191Z,-2.35
2017-04-12T03:13:32.174Z,-2.29
2017-04-12T03:14:32.152Z,-2.35
2017-04-12T03:15:32.135Z,-2.38
2017-04-12T03:16:32.118Z,-2.33
2017-04-12T03:17:31.793Z,-2.43
2017-04-12T03:18:32.077Z,-2.51
2017-04-12T03:19:32.058Z,-2.51
2017-04-12T03:20:32.246Z,-2.55
2017-04-12T03:21:32.018Z,-2.56
2017-04-12T03:22:32.001Z,-2.53
2017-04-12T03:23:31.981Z,-2.41
2017-04-12T03:24:31.957Z,-2.44
2017-04-12T03:25:31.643Z,-2.38
2017-04-12T03:26:31.630Z,-2.33
2017-04-12T03:27:31.913Z,-2.44
2017-04-12T03:28:31.886Z,-2.43
2017-04-12T03:29:31.866Z,-2.37
2017-04-12T03:30:31.844Z,-2.4
2017-04-12T03:31:31.832Z,-2.33
2017-04-12T03:32:31.813Z,-2.44
2017-04-12T03:33:31.490Z,-2.43
2017-04-12T03:34:31.770Z,-2.35
2017-04-12T03:35:31.752Z,-2.38
2017-04-12T03:36:31.734Z,-2.38
2017-04-12T03:37:31.449Z,-2.35
2017-04-12T03:38:31.695Z,-2.26
2017-04-12T03:39:31.678Z,-2.21
2017-04-12T03:40:31.661Z,-2.19
2017-04-12T03:41:31.636Z,-2.22
2017-04-12T03:42:31.619Z,-2.24
2017-04-12T03:43:31.603Z,-2.25
2017-04-12T03:44:31.581Z,-2.24
2017-04-12T03:45:31.771Z,-2.25
2017-04-12T03:46:31.541Z,-2.18
2017-04-12T03:47:31.227Z,-2.35
2017-04-12T03:48:31.507Z,-2.22
2017-04-12T03:49:31.485Z,-2.24
2017-04-12T03:50:31.463Z,-2.29
2017-04-12T03:51:31.456Z,-2.28
2017-04-12T03:52:31.431Z,-2.19
2017-04-12T03:53:31.408Z,-2.24
2017-04-12T03:54:31.594Z,-2.26
2017-04-12T03:55:31.373Z,-2.22
2017-04-12T03:56:31.351Z,-2.11
2017-04-12T03:57:31.329Z,-2.08
2017-04-12T03:58:31.318Z,-2.1
2017-04-12T03:59:31.302Z,-2.08
2017-04-12T04:00:31.275Z,-2.1
2017-04-12T04:01:31.257Z,-2.14
2017-04-12T04:02:30.941Z,-2.07
2017-04-12T04:03:31.223Z,-2.03
2017-04-12T04:04:31.208Z,-2.04
2017-04-12T04:05:31.184Z,-2.04
2017-04-12T04:06:31.165Z,-2.01
2017-04-12T04:07:31.148Z,-2.06
2017-04-12T04:08:31.136Z,-2.03
2017-04-12T04:09:31.108Z,-2.03
2017-04-12T04:10:31.089Z,-2.1
2017-04-12T04:11:31.070Z,-2.04
2017-04-12T04:12:31.048Z,-2.01
2017-04-12T04:13:31.032Z,-2.07
2017-04-12T04:14:31.012Z,-2.06
2017-04-12T04:15:31.001Z,-1.98
2017-04-12T04:16:30.979Z,-2
2017-04-12T04:17:30.951Z,-1.98
2017-04-12T04:18:30.936Z,-1.88
2017-04-12T04:19:30.925Z,-1.93
2017-04-12T04:20:30.904Z,-1.86
2017-04-12T04:21:30.889Z,-1.86
2017-04-12T04:22:30.867Z,-1.89
2017-04-12T04:23:30.849Z,-1.82
2017-04-12T04:24:31.036Z,-1.77
2017-04-12T04:25:44.192Z,-1.75
2017-04-12T04:26:30.789Z,-1.86
2017-04-12T04:27:30.774Z,-1.77
2017-04-12T04:28:30.953Z,-1.65
2017-04-12T04:29:30.434Z,-1.77
2017-04-12T04:30:30.717Z,-1.65
2017-04-12T04:31:30.699Z,-1.56
2017-04-12T04:32:30.674Z,-1.61
2017-04-12T04:33:30.664Z,-1.57
2017-04-12T04:34:30.639Z,-1.5
2017-04-12T04:35:30.624Z,-1.53
2017-04-12T04:36:30.608Z,-1.51
2017-04-12T04:37:30.586Z,-1.41
2017-04-12T04:38:30.567Z,-1.41
2017-04-12T04:39:30.549Z,-1.53
2017-04-12T04:40:30.530Z,-1.38
2017-04-12T04:41:30.519Z,-1.47
2017-04-12T04:42:30.493Z,-1.36
2017-04-12T04:43:30.479Z,-1.46
2017-04-12T04:44:30.467Z,-1.46
2017-04-12T04:45:30.447Z,-1.47
2017-04-12T04:46:30.421Z,-1.5
2017-04-12T04:47:30.405Z,-1.57
2017-04-12T04:48:30.389Z,-1.47
2017-04-12T04:49:30.371Z,-1.39
2017-04-12T04:50:30.345Z,-1.39
2017-04-12T04:51:30.332Z,-1.36
2017-04-12T04:52:30.315Z,-1.41
2017-04-12T04:53:30.295Z,-1.38
2017-04-12T04:54:30.282Z,-1.39
2017-04-12T04:55:30.260Z,-1.38
2017-04-12T04:56:30.240Z,-1.41
2017-04-12T04:57:30.420Z,-1.54
2017-04-12T04:58:30.201Z,-1.38
2017-04-12T04:59:30.386Z,-1.44
2017-04-12T05:00:30.166Z,-1.39
2017-04-12T05:01:30.154Z,-1.38
2017-04-12T05:02:30.132Z,-1.35
2017-04-12T05:03:30.112Z,-1.35
2017-04-12T05:04:30.104Z,-1.28
2017-04-12T05:05:30.078Z,-1.35
2017-04-12T05:06:30.055Z,-1.23
2017-04-12T05:07:30.042Z,-1.26
2017-04-12T05:08:30.021Z,-1.33
2017-04-12T05:09:30.001Z,-1.35
2017-04-12T05:10:29.984Z,-1.31
2017-04-12T05:11:29.969Z,-1.29
2017-04-12T05:12:29.952Z,-1.26
2017-04-12T05:13:29.935Z,-1.2
2017-04-12T05:14:29.920Z,-1.21
2017-04-12T05:15:29.907Z,-1.14
2017-04-12T05:16:29.879Z,-1.13
2017-04-12T05:17:29.860Z,-1.07
2017-04-12T05:18:29.842Z,-1.1
2017-04-12T05:19:29.822Z,-1.08
2017-04-12T05:20:29.810Z,-0.95
2017-04-12T05:21:29.793Z,-0.96
2017-04-12T05:22:29.777Z,-0.9
2017-04-12T05:23:29.755Z,-0.96
2017-04-12T05:24:29.741Z,-0.99
2017-04-12T05:25:29.726Z,-0.95
2017-04-12T05:26:29.703Z,-0.89
2017-04-12T05:27:29.688Z,-0.93
2017-04-12T05:28:29.669Z,-1
2017-04-12T05:29:29.650Z,-1.03
2017-04-12T05:30:29.634Z,-1
2017-04-12T05:31:29.616Z,-0.96
2017-04-12T05:32:29.597Z,-0.95
2017-04-12T05:33:29.581Z,-0.93
2017-04-12T05:34:29.565Z,-1
2017-04-12T05:35:29.545Z,-1.02
2017-04-12T05:36:29.525Z,-0.95
2017-04-12T05:37:29.506Z,-0.93
2017-04-12T05:38:29.488Z,-0.93
2017-04-12T05:39:29.509Z,-0.93
2017-04-12T05:40:29.459Z,-0.96
2017-04-12T05:41:29.434Z,-0.97
2017-04-12T05:42:29.421Z,-0.96
2017-04-12T05:43:29.395Z,-0.99
2017-04-12T05:44:29.384Z,-0.95
2017-04-12T05:45:29.365Z,-0.93
2017-04-12T05:46:29.345Z,-0.96
2017-04-12T05:47:29.327Z,-0.9
2017-04-12T05:48:29.313Z,-0.78
2017-04-12T05:49:29.298Z,-0.67
2017-04-12T05:50:29.277Z,-0.83
2017-04-12T05:51:29.261Z,-0.7
2017-04-12T05:52:29.241Z,-0.81
2017-04-12T05:53:28.918Z,-0.73
2017-04-12T05:54:29.206Z,-0.59
2017-04-12T05:55:29.186Z,-0.55
2017-04-12T05:56:29.166Z,-0.55
2017-04-12T05:57:29.154Z,-0.5
2017-04-12T05:58:29.134Z,-0.49
2017-04-12T05:59:29.114Z,-0.5
2017-04-12T06:00:29.100Z,-0.44
2017-04-12T06:01:29.078Z,-0.35
2017-04-12T06:02:29.059Z,-0.34
2017-04-12T06:03:29.048Z,-0.3
2017-04-12T06:04:28.725Z,-0.37
2017-04-12T06:05:29.023Z,-0.12
2017-04-12T06:06:29.002Z,-0.31
2017-04-12T06:07:28.971Z,-0.23
2017-04-12T06:08:28.957Z,-0.34
2017-04-12T06:09:28.940Z,-0.34
2017-04-12T06:10:28.919Z,-0.37
2017-04-12T06:11:28.904Z,-0.24
2017-04-12T06:12:28.885Z,-0.32
2017-04-12T06:13:28.870Z,-0.13
2017-04-12T06:14:28.851Z,-0.09
2017-04-12T06:15:28.835Z,-0.05
2017-04-12T06:16:28.816Z,-0.03
2017-04-12T06:17:28.806Z,-0.03
2017-04-12T06:18:28.789Z,-0.02
2017-04-12T06:19:28.776Z,0.13
2017-04-12T06:20:28.753Z,0.17
2017-04-12T06:21:28.737Z,0.62
2017-04-12T06:22:28.713Z,0.7
2017-04-12T06:23:28.698Z,0.7
2017-04-12T06:24:28.682Z,0.8
2017-04-12T06:25:28.664Z,1.11
2017-04-12T06:26:28.652Z,1
2017-04-12T06:27:28.632Z,0.9
2017-04-12T06:28:28.619Z,0.99
2017-04-12T06:29:28.597Z,0.95
2017-04-12T06:30:28.590Z,0.96
2017-04-12T06:31:28.567Z,1.17
2017-04-12T06:32:28.547Z,1.04
2017-04-12T06:33:28.536Z,1.13
2017-04-12T06:34:28.519Z,1.07
2017-04-12T06:35:28.202Z,0.89
2017-04-12T06:36:28.184Z,0.7
2017-04-12T06:37:28.471Z,0.62
2017-04-12T06:38:28.153Z,0.7
2017-04-12T06:39:28.436Z,1.08
2017-04-12T06:40:28.424Z,1.07
2017-04-12T06:41:28.406Z,1.36
2017-04-12T06:42:28.390Z,0.99
2017-04-12T06:43:28.383Z,1.21
2017-04-12T06:44:28.369Z,1.06
2017-04-12T06:45:28.347Z,1.14
2017-04-12T06:46:28.339Z,1.18
2017-04-12T06:47:28.315Z,1.13
2017-04-12T06:48:28.299Z,1.25
2017-04-12T06:49:28.281Z,0.99
2017-04-12T06:50:28.264Z,0.77
2017-04-12T06:51:28.242Z,1.08
2017-04-12T06:52:28.229Z,1.29
2017-04-12T06:53:28.217Z,1.28
2017-04-12T06:54:28.195Z,1.42
2017-04-12T06:55:28.185Z,1.2
2017-04-12T06:56:28.165Z,1.16
2017-04-12T06:57:28.194Z,1.16
2017-04-12T06:58:28.138Z,1.08
2017-04-12T06:59:28.122Z,1.17
2017-04-12T07:00:28.106Z,1.34
2017-04-12T07:01:28.086Z,1.08
2017-04-12T07:02:28.074Z,0.88
2017-04-12T07:03:28.058Z,0.86
2017-04-12T07:04:27.743Z,0.84
2017-04-12T07:05:28.029Z,1.08
2017-04-12T07:06:28.009Z,1.24
2017-04-12T07:07:27.996Z,1.63
2017-04-12T07:08:27.980Z,1.64
2017-04-12T07:09:27.655Z,1.43
2017-04-12T07:10:27.947Z,1.47
2017-04-12T07:11:27.628Z,1.43
2017-04-12T07:12:27.916Z,1.46
2017-04-12T07:13:27.900Z,1.11
2017-04-12T07:14:27.883Z,1.29
2017-04-12T07:15:27.872Z,1.06
2017-04-12T07:16:27.850Z,0.95
2017-04-12T07:17:27.829Z,1.17
2017-04-12T07:18:27.815Z,1.1
2017-04-12T07:19:27.502Z,1.17
2017-04-12T07:20:27.789Z,1.63
2017-04-12T07:21:27.767Z,1.89
2017-04-12T07:22:27.455Z,2.04
2017-04-12T07:23:27.735Z,2.14
2017-04-12T07:24:27.756Z,2.4
2017-04-12T07:25:27.711Z,2.51
2017-04-12T07:26:27.700Z,2.79
2017-04-12T07:27:27.678Z,2.81
2017-04-12T07:28:27.663Z,2.51
2017-04-12T07:29:27.646Z,2.87
2017-04-12T07:30:27.638Z,3.15
2017-04-12T07:31:27.620Z,3.2
2017-04-12T07:32:27.600Z,3.95
2017-04-12T07:33:27.286Z,3.6
2017-04-12T07:34:27.579Z,3.63
2017-04-12T07:35:27.562Z,3.68
2017-04-12T07:36:27.548Z,3.68
2017-04-12T07:37:27.529Z,4.02
2017-04-12T07:38:27.519Z,3.15
2017-04-12T07:39:27.504Z,3.26
2017-04-12T07:40:27.488Z,3.41
2017-04-12T07:41:27.479Z,3.3
2017-04-12T07:42:27.463Z,2.77
2017-04-12T07:43:27.446Z,3.23
2017-04-12T07:44:27.134Z,3.19
2017-04-12T07:45:26.818Z,2.97
2017-04-12T07:46:27.409Z,2.5
2017-04-12T07:47:27.093Z,2.2
2017-04-12T07:48:27.079Z,2.43
2017-04-12T07:49:27.364Z,2.84
2017-04-12T07:50:27.356Z,2.25
2017-04-12T07:51:27.033Z,1.9
2017-04-12T07:52:27.023Z,2.27
2017-04-12T07:53:27.307Z,2.63
2017-04-12T07:54:27.295Z,2.51
2017-04-12T07:55:27.284Z,2.9
2017-04-12T07:56:27.272Z,2.38
2017-04-12T07:57:26.949Z,2.58
2017-04-12T07:58:27.270Z,2.76
2017-04-12T07:59:27.223Z,2.76
2017-04-12T08:00:26.905Z,2.41
2017-04-12T08:01:27.191Z,2.76
2017-04-12T08:02:27.180Z,2.65
2017-04-12T08:03:26.865Z,2.4
2017-04-12T08:04:27.157Z,2.27
2017-04-12T08:05:27.135Z,2.71
2017-04-12T08:06:27.123Z,2.8
2017-04-12T08:07:27.100Z,2.73
2017-04-12T08:08:27.090Z,2.43
2017-04-12T08:09:27.074Z,2.09
2017-04-12T08:10:27.060Z,2.3
2017-04-12T08:11:27.045Z,2.83
2017-04-12T08:12:27.042Z,3.45
2017-04-12T08:13:27.018Z,3.12
2017-04-12T08:14:27.003Z,3.17
2017-04-12T08:15:26.991Z,2.98
2017-04-12T08:16:26.982Z,2.71
2017-04-12T08:17:26.660Z,2.8
2017-04-12T08:18:26.947Z,3.15
2017-04-12T08:19:26.929Z,3.28
2017-04-12T08:20:26.920Z,3.44
2017-04-12T08:21:26.946Z,3.39
2017-04-12T08:22:26.587Z,2.98
2017-04-12T08:23:26.876Z,3.23
2017-04-12T08:24:26.258Z,4
2017-04-12T08:25:26.846Z,3.81
2017-04-12T08:26:26.834Z,3.39
2017-04-12T08:27:26.820Z,3.42
2017-04-12T08:28:26.810Z,2.9
2017-04-12T08:29:26.488Z,2.79
2017-04-12T08:30:26.784Z,2.99
2017-04-12T08:31:26.764Z,3.02
2017-04-12T08:32:26.750Z,2.87
2017-04-12T08:33:26.731Z,2.81
2017-04-12T08:34:26.721Z,3.42
2017-04-12T08:35:26.701Z,3.52
2017-04-12T08:36:26.688Z,3.6
2017-04-12T08:37:26.671Z,3.68
2017-04-12T08:38:26.663Z,3.44
2017-04-12T08:39:26.043Z,3.33
2017-04-12T08:40:26.673Z,3.59
2017-04-12T08:41:26.626Z,3.67
2017-04-12T08:42:26.608Z,3.95
2017-04-12T08:43:26.593Z,4.08
2017-04-12T08:44:26.572Z,3.96
2017-04-12T08:45:26.563Z,4.13
2017-04-12T08:46:26.548Z,4.11
2017-04-12T08:47:26.543Z,3.93
2017-04-12T08:48:26.522Z,4.17
2017-04-12T08:49:26.518Z,3.63
2017-04-12T08:50:26.193Z,4.02
2017-04-12T08:51:26.180Z,3.68
2017-04-12T08:52:26.469Z,3.9
2017-04-12T08:53:26.450Z,3.23
2017-04-12T08:54:26.443Z,3.1
2017-04-12T08:55:26.425Z,2.83
2017-04-12T08:56:26.417Z,2.29
2017-04-12T08:57:26.101Z,2.51
2017-04-12T08:58:26.384Z,2.63
2017-04-12T08:59:26.376Z,2.11
2017-04-12T09:00:26.358Z,2.56
2017-04-12T09:01:26.349Z,2.37
2017-04-12T09:02:26.330Z,2.8
2017-04-12T09:03:26.013Z,2.79
2017-04-12T09:04:26.306Z,2.97
2017-04-12T09:05:26.289Z,3.26
2017-04-12T09:06:26.275Z,3.46
2017-04-12T09:07:26.260Z,3.25
2017-04-12T09:08:26.242Z,3.67
2017-04-12T09:09:26.226Z,4.14
2017-04-12T09:10:26.217Z,3.7
2017-04-12T09:11:25.905Z,2.87
2017-04-12T09:12:25.888Z,2.68
2017-04-12T09:13:26.178Z,2.63
2017-04-12T09:14:26.165Z,2.37
2017-04-12T09:15:26.151Z,2.08
2017-04-12T09:16:26.142Z,1.75
2017-04-12T09:17:26.122Z,1.56
2017-04-12T09:18:26.101Z,1.81
2017-04-12T09:19:25.790Z,1.7
2017-04-12T09:20:26.076Z,1.88
2017-04-12T09:21:26.063Z,2.25
2017-04-12T09:22:26.043Z,2.3
2017-04-12T09:23:26.031Z,2.2
2017-04-12T09:24:26.013Z,2.89
2017-04-12T09:25:25.999Z,3.35
2017-04-12T09:26:25.691Z,3.42
2017-04-12T09:27:25.970Z,3.68
2017-04-12T09:28:25.664Z,4
2017-04-12T09:29:25.938Z,3.95
2017-04-12T09:30:25.929Z,3.13
2017-04-12T09:31:25.612Z,3.35
2017-04-12T09:32:25.906Z,3.46
2017-04-12T09:33:25.591Z,3.53
2017-04-12T09:34:25.875Z,3.53
2017-04-12T09:35:25.555Z,3.86
2017-04-12T09:36:25.846Z,4.08
2017-04-12T09:37:25.531Z,4.21
2017-04-12T09:38:25.817Z,3.15
2017-04-12T09:39:25.799Z,3.25
2017-04-12T09:40:25.787Z,3.88
2017-04-12T09:41:25.473Z,3.3
2017-04-12T09:42:25.760Z,3.33
2017-04-12T09:43:25.747Z,2.9
2017-04-12T09:44:25.429Z,2.79
2017-04-12T09:45:25.715Z,3.56
2017-04-12T09:46:25.707Z,3.37
2017-04-12T09:47:25.386Z,3.45
2017-04-12T09:48:25.373Z,3.99
2017-04-12T09:49:25.669Z,4.31
2017-04-12T09:50:25.648Z,4.68
2017-04-12T09:51:25.636Z,3.86
2017-04-12T09:52:25.622Z,3.53
2017-04-12T09:53:25.608Z,3.84
2017-04-12T09:54:25.595Z,3.3
2017-04-12T09:55:25.583Z,3.42
2017-04-12T09:56:25.266Z,3.46
2017-04-12T09:57:25.558Z,3.08
2017-04-12T09:58:24.937Z,3.3
2017-04-12T09:59:25.227Z,3.35
2017-04-12T10:00:25.512Z,2.9
2017-04-12T10:01:25.505Z,2.65
2017-04-12T10:02:25.485Z,2.98
2017-04-12T10:03:25.474Z,3.28
2017-04-12T10:04:24.851Z,3.45
2017-04-12T10:05:25.142Z,3.35
2017-04-12T10:06:25.434Z,3.67
2017-04-12T10:07:25.414Z,2.87
2017-04-12T10:08:25.403Z,3.08
2017-04-12T10:09:25.387Z,3.13
2017-04-12T10:10:25.372Z,3.15
2017-04-12T10:11:25.361Z,2.87
2017-04-12T10:12:25.349Z,1.93
2017-04-12T10:13:25.334Z,1.6
2017-04-12T10:14:25.016Z,1.74
2017-04-12T10:15:25.300Z,1.77
2017-04-12T10:16:25.288Z,1.64
2017-04-12T10:17:25.278Z,1.49
2017-04-12T10:18:25.261Z,1.26
2017-04-12T10:19:25.286Z,1.28
2017-04-12T10:20:25.231Z,1.28
2017-04-12T10:21:24.914Z,1.49
2017-04-12T10:22:25.242Z,1.85
2017-04-12T10:23:25.189Z,2.26
2017-04-12T10:24:25.168Z,2.83
2017-04-12T10:25:25.152Z,2.66
2017-04-12T10:26:25.140Z,2.58
2017-04-12T10:27:25.124Z,2.59
2017-04-12T10:28:25.112Z,3.28
2017-04-12T10:29:25.092Z,3.44
2017-04-12T10:30:25.073Z,3.07
2017-04-12T10:31:24.762Z,3.28
2017-04-12T10:32:25.044Z,2.55
2017-04-12T10:33:25.029Z,2.58
2017-04-12T10:34:25.019Z,2.51
2017-04-12T10:35:25.000Z,2.53
2017-04-12T10:36:24.985Z,2.97
2017-04-12T10:37:24.697Z,2.9
2017-04-12T10:38:24.957Z,3.15
2017-04-12T10:39:24.646Z,4.02
2017-04-12T10:40:24.640Z,4.17
2017-04-12T10:41:24.919Z,4.53
2017-04-12T10:42:24.905Z,4.47
2017-04-12T10:43:24.890Z,4.56
2017-04-12T10:44:24.572Z,4.75
2017-04-12T10:45:24.862Z,4.8
2017-04-12T10:46:24.553Z,4.18
2017-04-12T10:47:24.838Z,3.92
2017-04-12T10:48:24.821Z,4.14
2017-04-12T10:49:24.813Z,3.9
2017-04-12T10:50:24.802Z,2.94
2017-04-12T10:51:24.783Z,2.98
2017-04-12T10:52:24.773Z,3.8
2017-04-12T10:53:24.751Z,3.41
2017-04-12T10:54:24.745Z,3.95
2017-04-12T10:55:24.730Z,4.62
2017-04-12T10:56:24.718Z,4.18
2017-04-12T10:57:24.701Z,4.34
2017-04-12T10:58:24.694Z,4.25
2017-04-12T10:59:24.072Z,4.86
2017-04-12T11:00:24.668Z,4.8
2017-04-12T11:01:24.349Z,5.26
2017-04-12T11:02:24.636Z,6.2
2017-04-12T11:03:24.326Z,6.86
2017-04-12T11:04:24.311Z,6.96
2017-04-12T11:05:24.603Z,7.15
2017-04-12T11:06:24.586Z,6.54
2017-04-12T11:07:23.972Z,6.27
2017-04-12T11:08:24.567Z,5.41
2017-04-12T11:09:24.245Z,4.51
2017-04-12T11:10:24.536Z,4.35
2017-04-12T11:11:24.225Z,4.64
2017-04-12T11:12:24.517Z,4.16
2017-04-12T11:13:24.503Z,4.67
2017-04-12T11:14:24.486Z,5.01
2017-04-12T11:15:24.483Z,4.59
2017-04-12T11:16:24.505Z,3.99
2017-04-12T11:17:24.452Z,4.34
2017-04-12T11:18:24.444Z,4.47
2017-04-12T11:19:23.831Z,5.11
2017-04-12T11:20:24.136Z,5.63
2017-04-12T11:21:24.403Z,6.3
2017-04-12T11:22:24.393Z,6.93
2017-04-12T11:23:24.384Z,7.29
2017-04-12T11:24:24.366Z,6.65
2017-04-12T11:25:24.055Z,5.8
2017-04-12T11:26:24.338Z,5.55
2017-04-12T11:27:24.332Z,5.67
2017-04-12T11:28:24.318Z,4.87
2017-04-12T11:29:24.303Z,4.1
2017-04-12T11:30:24.291Z,3.81
2017-04-12T11:31:23.983Z,3.28
2017-04-12T11:32:24.272Z,4.5
2017-04-12T11:33:23.954Z,5.14
2017-04-12T11:34:24.250Z,5.24
2017-04-12T11:35:24.236Z,5.35
2017-04-12T11:36:24.221Z,5.38
2017-04-12T11:37:24.212Z,5.4
2017-04-12T11:38:24.201Z,4.51
2017-04-12T11:39:24.181Z,4.53
2017-04-12T11:40:23.865Z,4.68
2017-04-12T11:41:24.157Z,5.15
2017-04-12T11:42:24.149Z,4.84
2017-04-12T11:43:24.137Z,5.42
2017-04-12T11:44:24.123Z,6.33
2017-04-12T11:45:24.111Z,6.65
2017-04-12T11:46:24.102Z,7.29
2017-04-12T11:47:23.784Z,6.19
2017-04-12T11:48:24.068Z,5.56
2017-04-12T11:49:24.058Z,4.77
2017-04-12T11:50:24.051Z,4.86
2017-04-12T11:51:24.040Z,5.35
2017-04-12T11:52:24.023Z,6.08
2017-04-12T11:53:23.710Z,6.87
2017-04-12T11:54:24.001Z,6.87
2017-04-12T11:55:23.991Z,7.21
2017-04-12T11:56:23.676Z,7.47
2017-04-12T11:57:23.666Z,7.24
2017-04-12T11:58:23.956Z,6.21
2017-04-12T11:59:23.946Z,5.78
2017-04-12T12:00:23.632Z,5.4
2017-04-12T12:01:23.926Z,5.17
2017-04-12T12:02:23.908Z,5.23
2017-04-12T12:03:23.600Z,5.8
2017-04-12T12:04:23.586Z,6.43
2017-04-12T12:05:23.575Z,6.3
2017-04-12T12:06:23.865Z,6.42
2017-04-12T12:07:23.603Z,5.96
2017-04-12T12:08:23.847Z,5.63
2017-04-12T12:09:23.834Z,5.27
2017-04-12T12:10:23.828Z,5.41
2017-04-12T12:11:23.812Z,5.17
2017-04-12T12:12:23.802Z,6.28
2017-04-12T12:13:23.487Z,7.04
2017-04-12T12:14:23.170Z,7.5
2017-04-12T12:15:23.774Z,8
2017-04-12T12:16:23.754Z,7.44
2017-04-12T12:17:23.746Z,7.47
2017-04-12T12:18:23.131Z,7.85
2017-04-12T12:19:23.717Z,8.42
2017-04-12T12:20:23.711Z,8.61
2017-04-12T12:21:23.698Z,8.55
2017-04-12T12:22:23.691Z,8.68
2017-04-12T12:23:23.678Z,8.61
2017-04-12T12:24:23.366Z,7.62
2017-04-12T12:25:23.658Z,7.08
2017-04-12T12:26:23.648Z,6.25
2017-04-12T12:27:23.635Z,6.05
2017-04-12T12:28:23.623Z,6.51
2017-04-12T12:29:23.611Z,7.45
2017-04-12T12:30:23.605Z,8.42
2017-04-12T12:31:23.590Z,8.4
2017-04-12T12:32:23.580Z,8.17
2017-04-12T12:33:23.575Z,8.02
2017-04-12T12:34:23.561Z,8.54
2017-04-12T12:35:23.250Z,8.88
2017-04-12T12:36:23.541Z,8.67
2017-04-12T12:37:23.537Z,8.98
2017-04-12T12:38:23.226Z,8.18
2017-04-12T12:39:23.539Z,7.33
2017-04-12T12:40:23.501Z,6.97
2017-04-12T12:41:23.495Z,7.05
2017-04-12T12:42:23.479Z,7.16
2017-04-12T12:43:23.471Z,7.58
2017-04-12T12:44:23.457Z,7.91
2017-04-12T12:45:22.848Z,8.24
2017-04-12T12:46:23.135Z,7.58
2017-04-12T12:47:23.431Z,7.16
2017-04-12T12:48:23.419Z,6.83
2017-04-12T12:49:23.408Z,6.72
2017-04-12T12:50:23.094Z,6.63
2017-04-12T12:51:23.391Z,6.71
2017-04-12T12:52:23.375Z,5.98
2017-04-12T12:53:23.367Z,6.33
2017-04-12T12:54:23.350Z,5.77
2017-04-12T12:55:23.341Z,5.98
2017-04-12T12:56:23.335Z,5.85
2017-04-12T12:57:23.352Z,6.4
2017-04-12T12:58:23.314Z,5.65
2017-04-12T12:59:23.303Z,4.87
2017-04-12T13:00:23.288Z,5.48
2017-04-12T13:01:23.278Z,6.24
2017-04-12T13:02:23.266Z,5.85
2017-04-12T13:03:23.257Z,5.67
2017-04-12T13:04:23.246Z,6.05
2017-04-12T13:05:23.231Z,5.4
2017-04-12T13:06:23.229Z,5.41
2017-04-12T13:07:23.204Z,5.81
2017-04-12T13:08:23.196Z,5.74
2017-04-12T13:09:23.185Z,5.59